createdAt,value
2022-10-19T00:01:59.211Z,102835.44
2022-10-19T00:07:00.898Z,102841.19
2022-10-19T00:12:02.510Z,102835.97
2022-10-19T00:17:04.255Z,102835.97
2022-10-19T00:22:07.189Z,102817.06
2022-10-19T00:27:24.087Z,102820.22
2022-10-19T00:32:25.742Z,102813.25
2022-10-19T00:37:27.580Z,102814.63
2022-10-19T00:42:29.242Z,102821.53
2022-10-19T00:47:31.681Z,102832.28
2022-10-19T00:52:33.569Z,102830.72
2022-10-19T00:57:35.939Z,102836.63
2022-10-19T01:02:37.711Z,102822.63
2022-10-19T01:07:39.501Z,102825.25
2022-10-19T01:13:02.768Z,102827.13
2022-10-19T01:18:36.804Z,102815.13
2022-10-19T01:23:53.633Z,102815.41
2022-10-19T01:29:22.857Z,102810.66
2022-10-19T01:35:12.551Z,102810.50
2022-10-19T01:40:55.999Z,102811.91
2022-10-19T01:46:27.527Z,102804.66
2022-10-19T01:51:34.566Z,102804.66
2022-10-19T01:56:37.775Z,102799.91
2022-10-19T02:01:44.015Z,102799.91
2022-10-19T02:06:46.038Z,102794.91
2022-10-19T02:11:57.903Z,102804.16
2022-10-19T02:17:03.482Z,102794.41
2022-10-19T02:22:05.293Z,102793.91
2022-10-19T02:27:08.241Z,102797.69
2022-10-19T02:32:10.397Z,102802.66
2022-10-19T02:37:12.156Z,102796.66
2022-10-19T02:42:22.577Z,102790.06
2022-10-19T02:47:30.040Z,102791.31
2022-10-19T02:52:31.749Z,102777.91
2022-10-19T02:57:33.943Z,102771.44
2022-10-19T03:02:35.816Z,102767.81
2022-10-19T03:07:37.822Z,102757.19
2022-10-19T03:12:39.535Z,102763.94
2022-10-19T03:17:41.151Z,102758.72
2022-10-19T03:22:42.916Z,102758.72
2022-10-19T03:27:44.654Z,102764.34
2022-10-19T03:32:46.287Z,102765.34
2022-10-19T03:37:47.892Z,102746.22
2022-10-19T03:42:49.500Z,102759.22
2022-10-19T03:47:51.446Z,102756.25
2022-10-19T03:52:55.304Z,102752.88
2022-10-19T03:57:57.967Z,102753.25
2022-10-19T04:02:59.672Z,102755.25
2022-10-19T04:08:01.371Z,102755.47
2022-10-19T04:13:02.964Z,102745.00
2022-10-19T04:18:04.656Z,102741.25
2022-10-19T04:23:06.368Z,102737.63
2022-10-19T04:28:08.072Z,102739.34
2022-10-19T04:33:09.763Z,102746.38
2022-10-19T04:38:11.406Z,102730.63
2022-10-19T04:43:13.085Z,102727.50
2022-10-19T04:48:15.271Z,102726.53
2022-10-19T04:53:17.861Z,102725.50
2022-10-19T04:58:19.488Z,102733.00
2022-10-19T05:03:21.189Z,102728.38
2022-10-19T05:08:22.790Z,102756.09
2022-10-19T05:13:24.476Z,102745.50
2022-10-19T05:18:27.109Z,102741.47
2022-10-19T05:23:29.532Z,102737.00
2022-10-19T05:28:31.935Z,102734.38
2022-10-19T05:33:34.171Z,102733.75
2022-10-19T05:38:35.835Z,102738.63
2022-10-19T05:43:37.634Z,102743.22
2022-10-19T05:48:40.139Z,102737.13
2022-10-19T05:53:42.295Z,102732.75
2022-10-19T05:58:44.560Z,102742.75
2022-10-19T06:03:48.065Z,102741.50
2022-10-19T06:08:50.816Z,102739.88
2022-10-19T06:13:55.458Z,102739.50
2022-10-19T06:18:58.255Z,102739.75
2022-10-19T06:24:03.003Z,102737.50
2022-10-19T06:29:05.694Z,102729.63
2022-10-19T06:34:07.489Z,102722.53
2022-10-19T06:39:09.218Z,102722.16
2022-10-19T06:44:10.859Z,102718.50
2022-10-19T06:49:14.581Z,102718.28
2022-10-19T06:54:16.245Z,102707.19
2022-10-19T06:59:20.025Z,102702.28
2022-10-19T07:04:21.636Z,102698.28
2022-10-19T07:09:23.350Z,102707.63
2022-10-19T07:14:25.289Z,102708.63
2022-10-19T07:19:27.189Z,102718.06
2022-10-19T07:24:28.885Z,102713.00
2022-10-19T07:29:30.536Z,102722.91
2022-10-19T07:34:32.366Z,102727.19
2022-10-19T07:39:34.106Z,102709.34
2022-10-19T07:44:36.404Z,102709.91
2022-10-19T07:49:38.409Z,102712.19
2022-10-19T07:54:40.305Z,102710.31
2022-10-19T07:59:42.110Z,102716.97
2022-10-19T08:05:02.818Z,102713.19
2022-10-19T08:10:06.280Z,102718.03
2022-10-19T08:15:08.226Z,102715.59
2022-10-19T08:20:10.171Z,102719.84
2022-10-19T08:25:11.893Z,102719.75
2022-10-19T08:30:13.568Z,102724.25
2022-10-19T08:35:15.250Z,102727.75
2022-10-19T08:40:23.817Z,102720.22
2022-10-19T08:45:50.934Z,102706.00
2022-10-19T08:50:53.440Z,102697.59
2022-10-19T08:56:04.924Z,102686.28
2022-10-19T09:01:17.044Z,102680.75
2022-10-19T09:06:37.454Z,102668.81
2022-10-19T09:11:44.346Z,102663.44
2022-10-19T09:16:46.471Z,102663.78
2022-10-19T09:22:11.262Z,102657.25
2022-10-19T09:27:31.804Z,102660.00
2022-10-19T09:32:39.095Z,102653.88
2022-10-19T09:37:45.820Z,102664.13
2022-10-19T09:42:51.308Z,102671.34
2022-10-19T09:47:53.464Z,102653.19
2022-10-19T09:53:05.343Z,102665.25
2022-10-19T09:58:18.302Z,102671.91
2022-10-19T10:03:28.256Z,102659.84
2022-10-19T10:08:33.500Z,102670.00
2022-10-19T10:13:41.844Z,102664.47
2022-10-19T10:18:58.930Z,102652.59
2022-10-19T10:24:03.064Z,102650.38
2022-10-19T10:29:20.157Z,102623.72
2022-10-19T10:34:50.264Z,102624.13
2022-10-19T10:39:57.911Z,102604.56
2022-10-19T10:45:03.449Z,102598.84
2022-10-19T10:50:07.711Z,102582.97
2022-10-19T10:55:09.330Z,102586.91
2022-10-19T11:00:16.797Z,102585.88
2022-10-19T11:05:31.733Z,102561.88
2022-10-19T11:10:52.833Z,102552.00
2022-10-19T11:16:02.717Z,102531.75
2022-10-19T11:21:12.826Z,102519.03
2022-10-19T11:26:33.099Z,102519.47
2022-10-19T11:31:47.366Z,102498.69
2022-10-19T11:36:59.315Z,102488.16
2022-10-19T11:42:19.315Z,102478.28
2022-10-19T11:47:42.052Z,102475.84
2022-10-19T11:53:01.110Z,102460.97
2022-10-19T11:58:24.766Z,102447.34
2022-10-19T12:04:04.201Z,102447.72
2022-10-19T12:09:22.879Z,102426.38
2022-10-19T12:14:29.378Z,102425.19
2022-10-19T12:19:46.953Z,102418.97
2022-10-19T12:24:50.852Z,102420.00
2022-10-19T12:29:53.938Z,102410.84
2022-10-19T12:35:04.608Z,102399.22
2022-10-19T12:40:26.275Z,102397.84
2022-10-19T12:45:27.929Z,102395.56
2022-10-19T12:50:48.478Z,102376.44
2022-10-19T12:56:14.721Z,102369.91
2022-10-19T13:01:19.870Z,102357.16
2022-10-19T13:06:24.606Z,102351.47
2022-10-19T13:11:26.621Z,102348.56
2022-10-19T13:16:28.286Z,102344.72
2022-10-19T13:22:02.291Z,102331.50
2022-10-19T13:27:03.889Z,102335.94
2022-10-19T13:32:43.544Z,102333.13
2022-10-19T13:37:45.299Z,102325.72
2022-10-19T13:42:46.990Z,102318.72
2022-10-19T13:47:56.669Z,102324.13
2022-10-19T13:53:27.704Z,102313.28
2022-10-19T13:58:58.962Z,102297.50
2022-10-19T14:04:21.632Z,102308.19
2022-10-19T14:10:04.067Z,102303.00
2022-10-19T14:15:23.061Z,102305.97
2022-10-19T14:20:38.191Z,102303.06
2022-10-19T14:25:39.886Z,102298.19
2022-10-19T14:30:41.513Z,102295.06
2022-10-19T14:35:48.865Z,102275.13
2022-10-19T14:40:50.574Z,102278.25
2022-10-19T14:46:07.683Z,102268.19
2022-10-19T14:51:28.215Z,102257.84
2022-10-19T14:56:58.275Z,102253.00
2022-10-19T15:02:04.098Z,102250.59
2022-10-19T15:07:17.483Z,102233.72
2022-10-19T15:12:23.647Z,102229.06
2022-10-19T15:17:31.239Z,102217.31
2022-10-19T15:22:32.971Z,102210.16
2022-10-19T15:27:35.979Z,102196.84
2022-10-19T15:32:38.512Z,102201.13
2022-10-19T15:37:44.069Z,102198.00
2022-10-19T15:42:48.738Z,102187.13
2022-10-19T15:48:10.363Z,102181.59
2022-10-19T15:53:11.940Z,102166.66
2022-10-19T15:58:14.306Z,102160.22
2022-10-19T16:03:16.482Z,102142.25
2022-10-19T16:08:18.185Z,102146.38
2022-10-19T16:13:19.788Z,102147.03
2022-10-19T16:18:21.424Z,102140.09
2022-10-19T16:23:23.312Z,102129.88
2022-10-19T16:28:25.055Z,102130.00
2022-10-19T16:33:26.657Z,102126.34
2022-10-19T16:38:29.278Z,102112.69
2022-10-19T16:43:31.070Z,102098.66
2022-10-19T16:48:33.365Z,102085.31
2022-10-19T16:53:37.990Z,102082.38
2022-10-19T16:58:41.050Z,102081.97
2022-10-19T17:03:46.922Z,102093.50
2022-10-19T17:14:12.694Z,102090.34
2022-10-19T17:19:14.556Z,102081.50
2022-10-19T17:24:21.650Z,102069.41
2022-10-19T17:29:24.243Z,102082.16
2022-10-19T17:34:27.323Z,102085.31
2022-10-19T17:39:29.997Z,102075.13
2022-10-19T17:44:32.000Z,102073.88
2022-10-19T17:49:33.696Z,102073.66
2022-10-19T17:54:43.639Z,102083.50
2022-10-19T17:59:56.985Z,102088.13
2022-10-19T18:04:59.976Z,102100.50
2022-10-19T18:10:01.787Z,102096.97
2022-10-19T18:15:03.719Z,102102.50
2022-10-19T18:20:05.838Z,102095.56
2022-10-19T18:25:07.734Z,102086.25
2022-10-19T18:30:10.025Z,102064.50
2022-10-19T18:35:11.938Z,102049.47
2022-10-19T18:40:13.704Z,102045.13
2022-10-19T18:45:15.370Z,102048.91
2022-10-19T18:50:17.676Z,102036.94
2022-10-19T18:55:19.506Z,102032.00
2022-10-19T19:00:21.134Z,102030.25
2022-10-19T19:05:23.192Z,102009.53
2022-10-19T19:10:25.037Z,102005.84
2022-10-19T19:15:26.677Z,102001.50
2022-10-19T19:20:28.348Z,101969.97
2022-10-19T19:25:30.262Z,101959.34
2022-10-19T19:30:31.935Z,101952.59
2022-10-19T19:35:34.033Z,101933.19
2022-10-19T19:40:40.240Z,101916.44
2022-10-19T19:45:45.190Z,101918.88
2022-10-19T19:50:47.153Z,101914.72
2022-10-19T19:55:49.609Z,101909.72
2022-10-19T20:00:51.329Z,101907.56
2022-10-19T20:05:52.933Z,101907.47
2022-10-19T20:10:54.511Z,101893.63
2022-10-19T20:15:56.130Z,101874.81
2022-10-19T20:21:02.249Z,101878.66
2022-10-19T20:26:04.134Z,101868.22
2022-10-19T20:31:08.658Z,101861.44
2022-10-19T20:36:20.142Z,101866.09
2022-10-19T20:41:24.005Z,101874.19
2022-10-19T20:46:28.874Z,101870.88
2022-10-19T20:51:33.646Z,101860.22
2022-10-19T20:56:40.054Z,101858.31
2022-10-19T21:01:43.935Z,101864.69
2022-10-19T21:06:48.419Z,101854.78
2022-10-19T21:11:51.447Z,101855.50
2022-10-19T21:16:53.385Z,101850.91
2022-10-19T21:22:01.672Z,101855.34
2022-10-19T21:27:07.575Z,101857.84
2022-10-19T21:32:09.603Z,101846.13
2022-10-19T21:42:12.880Z,101839.53
2022-10-19T21:47:14.543Z,101829.28
2022-10-19T21:52:16.308Z,101823.31
2022-10-19T21:57:17.962Z,101823.94
2022-10-19T22:02:19.575Z,101820.81
2022-10-19T22:07:21.247Z,101801.69
2022-10-19T22:12:22.923Z,101800.06
2022-10-19T22:17:24.506Z,101794.00
2022-10-19T22:22:26.129Z,101793.50
2022-10-19T22:27:27.850Z,101782.72
2022-10-19T22:32:29.663Z,101775.72
2022-10-19T22:37:31.470Z,101764.28
2022-10-19T22:42:33.330Z,101754.41
2022-10-19T22:47:35.193Z,101748.41
2022-10-19T22:52:37.387Z,101736.91
2022-10-19T22:57:39.263Z,101714.63
2022-10-19T23:02:40.926Z,101721.59
2022-10-19T23:07:42.602Z,101710.47
2022-10-19T23:12:44.186Z,101696.66
2022-10-19T23:17:46.061Z,101696.28
2022-10-19T23:22:47.816Z,101692.34
2022-10-19T23:27:49.456Z,101679.84
2022-10-19T23:32:51.116Z,101678.22
2022-10-19T23:37:52.791Z,101675.75
2022-10-19T23:42:54.434Z,101668.75
2022-10-19T23:47:56.079Z,101670.16
2022-10-19T23:52:57.776Z,101655.38
2022-10-19T23:57:59.526Z,101637.94
